Forside
METAR-TAF:

METAR-TAF

Lufthavne :

Moose Lake Carlton County Airport

Moose Lake, Minnesota, USA

Breddekreds: 46-25N, længdekreds: 092-48W, højde: 328 m

Aktuelle vejr

Denne rapport blev lavet for 19 minutter siden, kl. 19:56 UTC
Vind 3 kt fra syd
Temperatur 5°C
Fugtighed 48%
Tryk 1011 hPa
Sigt: 16.1 km
skyfri

METAR: KMZH 221956Z AUTO 17003KT 10SM CLR 05/M05 A2984 RMK AO2

Tid: 14:15 (20:15 UTC)


TAF: fraværende

Vejrobservationer og prognoser fra mere end 4000 lufthavne (METAR og TAF).

De gule og røde prikker repræsenterer de meteorologiske stationer.

Flyt musen over at se navnet på stationen.

Så klik over at se vejr observationer og prognoser.

At skifte det kort: Klik på de grønne knapper med et sort kors for at zoome ind; på den grønne knap med en bindestreg for at zoome ud; eller på de grønne pile for tilstødende kort.


METAR-TAF: